Time;durP1;ratioP1;P1;durP2;ratioP2;P2;SDS_P1;SDS_P2;PMS_P1;PMS_P2;Temp;Humidity;BMP_temperature;BMP_pressure;BME280_temperature;BME280_humidity;BME280_pressure;Samples;Min_cycle;Max_cycle;Signal;HPM_P1;HPM_P2
2023/05/04 00:00:24;;;;;;;2.67;1.85;;;4.60;99.90;;;;;;4946580;28;20046;-66
2023/05/04 00:02:51;;;;;;;2.70;1.80;;;4.50;99.90;;;;;;4947720;28;20051;-63
2023/05/04 00:05:18;;;;;;;3.58;1.77;;;4.50;99.90;;;;;;4947915;28;20126;-68
2023/05/04 00:07:45;;;;;;;3.08;1.50;;;4.50;99.90;;;;;;4947735;28;20062;-68
2023/05/04 00:10:12;;;;;;;5.03;1.92;;;4.50;99.90;;;;;;4945821;28;20131;-66
2023/05/04 00:12:39;;;;;;;1.65;1.42;;;4.50;99.90;;;;;;4942137;28;20277;-63
2023/05/04 00:15:07;;;;;;;1.88;1.30;;;4.40;99.90;;;;;;4946530;28;20051;-64
2023/05/04 00:17:33;;;;;;;2.25;1.45;;;4.40;99.90;;;;;;4932588;28;20576;-77
2023/05/04 00:20:00;;;;;;;2.45;1.73;;;4.40;99.90;;;;;;4921885;29;20060;-68
2023/05/04 00:22:28;;;;;;;3.00;1.17;;;4.50;99.90;;;;;;4940549;28;20484;-63
2023/05/04 00:24:55;;;;;;;1.60;1.50;;;4.40;99.90;;;;;;4945864;28;20050;-68
2023/05/04 00:27:22;;;;;;;1.67;1.58;;;4.40;99.90;;;;;;4949539;28;20498;-66
2023/05/04 00:29:48;;;;;;;1.98;1.40;;;4.40;99.90;;;;;;4949304;28;20058;-63
2023/05/04 00:32:15;;;;;;;3.22;1.40;;;4.40;99.90;;;;;;4946138;28;20055;-67
2023/05/04 00:34:42;;;;;;;3.20;1.67;;;4.40;99.90;;;;;;4948049;28;20145;-67
2023/05/04 00:37:09;;;;;;;1.85;1.67;;;4.40;99.90;;;;;;4947790;28;20058;-66
2023/05/04 00:39:36;;;;;;;3.63;1.52;;;4.40;99.90;;;;;;4959668;28;20058;-69
2023/05/04 00:42:03;;;;;;;1.95;1.10;;;4.40;99.90;;;;;;4942097;28;20494;-68
2023/05/04 00:44:30;;;;;;;2.45;1.70;;;4.40;99.90;;;;;;4946785;28;20142;-64
2023/05/04 00:46:57;;;;;;;4.15;1.60;;;4.30;99.90;;;;;;4944685;28;20074;-75
2023/05/04 00:49:24;;;;;;;3.25;2.83;;;4.30;99.90;;;;;;4946356;28;20051;-64
2023/05/04 00:51:53;;;;;;;2.45;2.22;;;4.30;99.90;;;;;;4948939;28;20059;-68
2023/05/04 00:54:21;;;;;;;2.15;1.77;;;4.30;99.90;;;;;;4945514;28;20047;-71
2023/05/04 00:56:48;;;;;;;2.08;1.33;;;4.30;99.90;;;;;;4946066;28;20137;-64
2023/05/04 00:59:15;;;;;;;3.53;1.73;;;4.30;99.90;;;;;;4952322;28;20444;-65
2023/05/04 01:01:42;;;;;;;3.65;2.30;;;4.30;99.90;;;;;;4954258;28;20050;-66
2023/05/04 01:04:09;;;;;;;2.13;1.42;;;4.30;99.90;;;;;;4948257;28;20085;-65
2023/05/04 01:06:46;;;;;;;2.17;1.85;;;4.30;99.90;;;;;;4944148;28;20043;-72
2023/05/04 01:09:27;;;;;;;4.15;1.80;;;4.30;99.90;;;;;;4965582;28;20047;-65
2023/05/04 01:12:06;;;;;;;2.65;2.15;;;4.30;99.90;;;;;;4943361;28;20051;-66
2023/05/04 01:14:34;;;;;;;2.97;2.38;;;4.30;99.90;;;;;;4945259;28;20098;-67
2023/05/04 01:17:06;;;;;;;2.70;2.15;;;4.20;99.90;;;;;;4948249;28;20063;-69
2023/05/04 01:19:33;;;;;;;3.65;2.40;;;4.20;99.90;;;;;;4947530;28;20055;-72
2023/05/04 01:22:02;;;;;;;2.78;1.85;;;4.20;99.90;;;;;;4947414;28;20051;-68
2023/05/04 01:24:30;;;;;;;4.43;2.08;;;4.20;99.90;;;;;;4943239;28;20146;-65
2023/05/04 01:27:15;;;;;;;2.50;2.17;;;4.10;99.90;;;;;;4947539;28;20055;-65
2023/05/04 01:29:42;;;;;;;5.30;1.98;;;4.10;99.90;;;;;;4960561;28;20047;-64
2023/05/04 01:32:12;;;;;;;3.53;2.30;;;4.00;99.90;;;;;;4958144;28;20051;-68
2023/05/04 01:34:40;;;;;;;2.80;1.50;;;4.00;99.90;;;;;;4941393;28;20821;-63
2023/05/04 01:37:07;;;;;;;2.33;1.95;;;3.90;99.90;;;;;;4943940;28;20055;-78
2023/05/04 01:39:35;;;;;;;2.55;1.85;;;3.90;99.90;;;;;;4957263;28;20055;-76
2023/05/04 01:42:02;;;;;;;2.22;2.03;;;3.80;99.90;;;;;;4944263;28;20047;-62
2023/05/04 01:44:28;;;;;;;2.92;1.83;;;3.80;99.90;;;;;;4937646;28;20075;-65
2023/05/04 01:46:55;;;;;;;4.30;2.15;;;3.80;99.90;;;;;;4943328;28;20062;-63
2023/05/04 01:49:22;;;;;;;3.10;2.55;;;3.70;99.90;;;;;;4934176;28;20134;-63
2023/05/04 01:51:49;;;;;;;3.85;1.67;;;3.70;99.90;;;;;;4935891;28;20498;-62
2023/05/04 01:54:16;;;;;;;3.70;2.55;;;3.70;99.90;;;;;;4944440;28;20089;-65
2023/05/04 01:56:43;;;;;;;2.00;1.60;;;3.70;99.90;;;;;;4937268;28;20146;-64
2023/05/04 01:59:11;;;;;;;1.85;1.63;;;3.60;99.90;;;;;;4950551;28;20050;-63
2023/05/04 02:01:39;;;;;;;2.97;1.55;;;3.60;99.90;;;;;;4936945;28;20082;-66
2023/05/04 02:04:06;;;;;;;4.22;2.58;;;3.60;99.90;;;;;;4964064;28;20043;-65
2023/05/04 02:06:33;;;;;;;5.22;2.40;;;3.60;99.90;;;;;;4942992;28;20043;-68
2023/05/04 02:09:00;;;;;;;4.07;2.50;;;3.60;99.90;;;;;;4938618;28;20117;-66
2023/05/04 02:11:27;;;;;;;4.07;2.38;;;3.60;99.90;;;;;;4936440;28;20665;-65
2023/05/04 02:13:54;;;;;;;1.50;1.30;;;3.50;99.90;;;;;;4935443;28;20098;-67
2023/05/04 02:16:21;;;;;;;2.28;1.45;;;3.50;99.90;;;;;;4924894;29;20135;-64
2023/05/04 02:18:47;;;;;;;2.25;2.08;;;3.50;99.90;;;;;;4933062;28;20463;-63
2023/05/04 02:21:14;;;;;;;5.07;2.03;;;3.50;99.90;;;;;;4933732;28;20150;-67
2023/05/04 02:23:43;;;;;;;3.60;2.13;;;3.50;99.90;;;;;;4945807;28;20532;-69
2023/05/04 02:26:10;;;;;;;3.00;1.65;;;3.40;99.90;;;;;;4939099;29;20059;-64
2023/05/04 02:28:37;;;;;;;3.60;2.28;;;3.40;99.90;;;;;;4938258;28;20059;-65
2023/05/04 02:31:04;;;;;;;3.58;1.92;;;3.40;99.90;;;;;;4930667;28;20051;-67
2023/05/04 02:33:31;;;;;;;7.53;2.55;;;3.40;99.90;;;;;;4949935;28;20051;-63
2023/05/04 02:35:57;;;;;;;8.60;2.75;;;3.40;99.90;;;;;;4931499;28;20066;-62
2023/05/04 02:38:25;;;;;;;3.10;2.00;;;3.30;99.90;;;;;;4925681;28;20070;-67
2023/05/04 02:40:52;;;;;;;3.80;2.22;;;3.30;99.90;;;;;;4960282;28;21006;-65
2023/05/04 02:43:19;;;;;;;2.78;2.17;;;3.30;99.90;;;;;;4949454;28;20054;-65
2023/05/04 02:45:46;;;;;;;3.35;1.95;;;3.30;99.90;;;;;;4955227;28;20142;-77
2023/05/04 02:48:13;;;;;;;5.13;1.75;;;3.20;99.90;;;;;;4945392;28;20075;-66
2023/05/04 02:50:40;;;;;;;4.60;2.22;;;3.20;99.90;;;;;;4948821;28;20141;-70
2023/05/04 02:53:07;;;;;;;4.10;1.90;;;3.20;99.90;;;;;;4944009;28;20051;-75
2023/05/04 02:55:33;;;;;;;4.53;1.80;;;3.20;99.90;;;;;;4952226;28;20053;-63
2023/05/04 02:58:00;;;;;;;4.22;1.90;;;3.20;99.90;;;;;;4949659;28;20596;-66
2023/05/04 03:00:27;;;;;;;2.60;2.28;;;3.20;99.90;;;;;;4950645;28;20138;-70
2023/05/04 03:02:54;;;;;;;3.05;1.65;;;3.10;99.90;;;;;;4948222;28;20066;-62
2023/05/04 03:05:21;;;;;;;4.05;1.85;;;3.10;99.90;;;;;;4948893;28;20073;-62
2023/05/04 03:07:49;;;;;;;2.70;2.00;;;3.10;99.90;;;;;;4954832;28;20138;-70
2023/05/04 03:10:16;;;;;;;2.47;2.28;;;3.10;99.90;;;;;;4950373;28;20058;-64
2023/05/04 03:12:43;;;;;;;7.82;3.25;;;3.10;99.90;;;;;;4948584;28;20138;-67
2023/05/04 03:15:11;;;;;;;7.40;2.85;;;3.10;99.90;;;;;;4948617;28;20470;-76
2023/05/04 03:17:38;;;;;;;4.15;2.55;;;3.10;99.90;;;;;;4945546;28;20058;-62
2023/05/04 03:20:06;;;;;;;4.93;2.30;;;3.10;99.90;;;;;;4954044;28;20130;-63
2023/05/04 03:22:33;;;;;;;3.90;1.80;;;3.20;99.90;;;;;;4959868;28;20399;-75
2023/05/04 03:25:01;;;;;;;3.53;2.45;;;3.20;99.90;;;;;;4952545;28;20043;-63
2023/05/04 03:27:28;;;;;;;2.90;2.17;;;3.20;99.90;;;;;;4938675;28;20465;-64
2023/05/04 03:29:55;;;;;;;3.00;2.42;;;3.20;99.90;;;;;;4927320;28;20126;-69
2023/05/04 03:32:23;;;;;;;6.55;2.80;;;3.20;99.90;;;;;;4962808;28;20051;-65
2023/05/04 03:34:50;;;;;;;3.47;2.08;;;3.20;99.90;;;;;;4961868;28;20051;-63
2023/05/04 03:37:19;;;;;;;4.05;2.40;;;3.20;99.90;;;;;;4948666;28;20110;-68
2023/05/04 03:39:46;;;;;;;5.93;2.90;;;3.30;99.90;;;;;;4949832;28;20710;-66
2023/05/04 03:42:13;;;;;;;4.07;1.42;;;3.30;99.90;;;;;;4946820;28;21549;-63
2023/05/04 03:44:40;;;;;;;3.28;2.22;;;3.30;99.90;;;;;;4949709;28;20059;-69
2023/05/04 03:47:06;;;;;;;4.13;2.38;;;3.30;99.90;;;;;;4963851;28;20136;-67
2023/05/04 03:49:34;;;;;;;4.13;2.72;;;3.30;99.90;;;;;;4945392;28;20056;-64
2023/05/04 03:52:01;;;;;;;3.85;2.42;;;3.30;99.90;;;;;;4964395;28;20066;-69
2023/05/04 03:54:28;;;;;;;4.22;1.85;;;3.30;99.90;;;;;;4939195;28;20565;-63
2023/05/04 03:56:55;;;;;;;4.22;2.08;;;3.40;99.90;;;;;;4951582;28;20081;-63
2023/05/04 03:59:22;;;;;;;5.05;3.10;;;3.40;99.90;;;;;;4964052;28;20070;-75
2023/05/04 04:01:49;;;;;;;5.10;1.70;;;3.40;99.90;;;;;;4947513;28;20138;-66
2023/05/04 04:04:16;;;;;;;3.65;1.73;;;3.50;99.90;;;;;;4949961;28;20089;-66
2023/05/04 04:06:43;;;;;;;2.70;1.90;;;3.50;99.90;;;;;;4945700;28;20102;-70
2023/05/04 04:09:11;;;;;;;4.45;2.03;;;3.50;99.90;;;;;;4944773;28;20135;-63
2023/05/04 04:11:38;;;;;;;4.43;1.73;;;3.60;99.90;;;;;;4952273;28;20473;-67
2023/05/04 04:14:05;;;;;;;4.82;1.35;;;3.60;99.90;;;;;;4948766;28;20069;-78
2023/05/04 04:16:32;;;;;;;3.63;1.77;;;3.70;99.90;;;;;;4944885;28;20059;-70
2023/05/04 04:19:00;;;;;;;2.55;1.98;;;3.70;99.90;;;;;;4935226;28;20074;-67
2023/05/04 04:21:28;;;;;;;3.72;1.35;;;3.70;99.90;;;;;;4946395;28;20149;-67
2023/05/04 04:23:54;;;;;;;2.92;1.85;;;3.80;99.90;;;;;;4939407;28;20134;-64
2023/05/04 04:26:21;;;;;;;4.18;1.85;;;3.80;99.90;;;;;;4936350;28;20138;-64
2023/05/04 04:28:49;;;;;;;6.57;2.13;;;3.90;99.90;;;;;;4945801;28;20587;-76
2023/05/04 04:31:17;;;;;;;4.13;1.70;;;4.00;99.90;;;;;;4958902;28;20051;-63
2023/05/04 04:33:46;;;;;;;3.22;1.73;;;4.00;99.90;;;;;;4949245;28;20055;-65
2023/05/04 04:36:17;;;;;;;4.45;1.50;;;4.10;99.90;;;;;;4954065;28;20496;-64
2023/05/04 04:38:44;;;;;;;3.42;1.92;;;4.10;99.90;;;;;;4943905;28;20461;-69
2023/05/04 04:41:11;;;;;;;4.07;1.90;;;4.10;99.90;;;;;;4949527;28;20477;-63
2023/05/04 04:43:38;;;;;;;4.20;1.30;;;4.10;99.90;;;;;;4949475;28;20142;-64
2023/05/04 04:46:05;;;;;;;11.95;2.28;;;4.20;99.90;;;;;;4947548;28;20496;-75
2023/05/04 04:48:31;;;;;;;3.22;1.50;;;4.30;99.90;;;;;;4944318;28;20480;-67
2023/05/04 04:50:58;;;;;;;5.15;1.70;;;4.30;99.90;;;;;;4949721;28;20584;-70
2023/05/04 04:53:25;;;;;;;2.65;1.65;;;4.40;99.90;;;;;;4956365;28;20087;-66
2023/05/04 04:55:53;;;;;;;5.32;1.67;;;4.40;99.90;;;;;;4946663;28;20494;-63
2023/05/04 04:58:20;;;;;;;2.67;1.90;;;4.50;99.90;;;;;;4949671;28;20086;-63
2023/05/04 05:00:47;;;;;;;8.23;2.10;;;4.50;99.90;;;;;;4948936;28;20779;-64
2023/05/04 05:03:14;;;;;;;8.95;1.75;;;4.50;99.90;;;;;;4944610;28;20109;-64
2023/05/04 05:05:41;;;;;;;3.92;1.77;;;4.60;99.90;;;;;;4944375;28;20107;-62
2023/05/04 05:08:08;;;;;;;4.93;3.95;;;4.60;99.90;;;;;;4929563;29;20107;-69
2023/05/04 05:10:35;;;;;;;1.88;1.42;;;4.60;99.90;;;;;;4940125;28;20550;-64
2023/05/04 05:13:02;;;;;;;3.22;1.90;;;4.70;99.90;;;;;;4947783;28;20053;-63
2023/05/04 05:15:29;;;;;;;2.72;2.00;;;4.70;99.90;;;;;;4948948;28;20059;-66
2023/05/04 05:17:56;;;;;;;3.80;1.63;;;4.80;99.90;;;;;;4936135;28;20765;-65
2023/05/04 05:20:23;;;;;;;2.05;1.45;;;4.90;99.90;;;;;;4945984;28;20453;-64
2023/05/04 05:22:50;;;;;;;4.65;2.63;;;4.90;99.90;;;;;;4951433;28;20381;-65
2023/05/04 05:25:18;;;;;;;2.15;1.42;;;5.00;99.90;;;;;;4943083;28;20102;-67
2023/05/04 05:27:45;;;;;;;3.05;2.10;;;5.10;99.90;;;;;;4944946;28;20059;-67
2023/05/04 05:30:12;;;;;;;3.88;1.35;;;5.10;99.90;;;;;;4946052;28;20051;-67
2023/05/04 05:32:39;;;;;;;3.63;1.70;;;5.20;99.90;;;;;;4948798;28;20251;-65
2023/05/04 05:35:07;;;;;;;2.45;2.22;;;5.20;99.90;;;;;;4942579;28;20044;-64
2023/05/04 05:37:34;;;;;;;4.53;1.67;;;5.30;99.90;;;;;;4937905;28;20056;-70
2023/05/04 05:40:01;;;;;;;8.60;2.75;;;5.40;99.90;;;;;;4945525;28;20061;-64
2023/05/04 05:42:29;;;;;;;8.40;2.17;;;5.40;99.90;;;;;;4939272;28;20059;-64
2023/05/04 05:44:56;;;;;;;5.25;2.38;;;5.50;99.90;;;;;;4937456;28;20048;-64
2023/05/04 05:47:23;;;;;;;3.75;1.45;;;5.60;99.90;;;;;;4935655;28;20055;-65
2023/05/04 05:49:50;;;;;;;4.10;2.17;;;5.60;99.90;;;;;;4949466;28;20158;-65
2023/05/04 05:52:17;;;;;;;4.15;2.33;;;5.70;99.90;;;;;;4948920;28;20047;-65
2023/05/04 05:54:44;;;;;;;3.95;1.58;;;5.80;99.90;;;;;;4946586;28;20466;-71
2023/05/04 05:57:11;;;;;;;2.13;1.92;;;5.90;99.90;;;;;;4943533;28;20055;-64
2023/05/04 05:59:37;;;;;;;2.45;2.10;;;6.00;99.90;;;;;;4947169;28;20141;-65
2023/05/04 06:02:05;;;;;;;3.10;1.42;;;6.00;99.90;;;;;;4946102;28;20051;-67
2023/05/04 06:04:32;;;;;;;3.05;1.52;;;6.00;99.90;;;;;;4944254;28;20105;-63
2023/05/04 06:06:59;;;;;;;2.80;1.63;;;6.10;99.90;;;;;;4947765;28;20055;-66
2023/05/04 06:09:25;;;;;;;3.42;1.33;;;6.10;99.90;;;;;;4945596;28;20061;-65
2023/05/04 06:11:52;;;;;;;5.35;1.58;;;6.30;99.90;;;;;;4945496;28;20053;-66
2023/05/04 06:14:21;;;;;;;4.20;1.67;;;6.40;99.90;;;;;;4945879;28;20059;-65
2023/05/04 06:16:48;;;;;;;5.38;1.77;;;6.50;99.90;;;;;;4946548;28;20055;-66
2023/05/04 06:19:15;;;;;;;1.63;0.98;;;6.50;99.90;;;;;;4937643;28;20056;-65
2023/05/04 06:21:42;;;;;;;7.10;1.60;;;6.60;99.90;;;;;;4932571;28;20349;-74
2023/05/04 06:24:08;;;;;;;1.60;1.30;;;6.70;99.90;;;;;;4940052;28;20054;-63
2023/05/04 06:26:35;;;;;;;3.05;1.05;;;6.70;99.90;;;;;;4928840;28;20055;-67
2023/05/04 06:29:02;;;;;;;1.40;1.08;;;6.70;99.90;;;;;;4940203;28;20051;-63
2023/05/04 06:31:29;;;;;;;2.28;1.45;;;6.80;99.90;;;;;;4945072;28;20055;-64
2023/05/04 06:33:56;;;;;;;3.17;1.40;;;6.80;99.90;;;;;;4939373;28;20052;-68
2023/05/04 06:36:25;;;;;;;3.28;1.40;;;6.90;99.90;;;;;;4948807;28;20062;-66
2023/05/04 06:38:51;;;;;;;2.22;1.23;;;6.90;99.90;;;;;;4945974;28;20099;-63
2023/05/04 06:41:18;;;;;;;3.60;1.42;;;7.00;99.90;;;;;;4944017;28;20505;-67
2023/05/04 06:43:45;;;;;;;1.55;1.42;;;7.00;99.90;;;;;;4948270;28;20449;-68
2023/05/04 06:46:12;;;;;;;2.90;1.33;;;7.10;99.90;;;;;;4952477;28;20365;-63
2023/05/04 06:48:40;;;;;;;1.15;0.90;;;7.20;99.90;;;;;;4923379;28;20236;-66
2023/05/04 06:51:07;;;;;;;1.88;1.20;;;7.20;99.90;;;;;;4942071;28;20536;-64
2023/05/04 06:53:33;;;;;;;3.17;1.77;;;7.30;99.90;;;;;;4944871;28;20083;-65
2023/05/04 06:56:01;;;;;;;2.65;1.33;;;7.50;99.90;;;;;;4929163;28;20246;-71
2023/05/04 06:58:28;;;;;;;3.13;1.65;;;7.50;99.90;;;;;;4923662;28;20082;-64
2023/05/04 07:00:55;;;;;;;6.35;1.50;;;7.50;99.90;;;;;;4924850;29;20047;-73
2023/05/04 07:03:22;;;;;;;6.07;1.70;;;7.60;99.90;;;;;;4930964;28;20062;-64
2023/05/04 07:05:49;;;;;;;3.08;1.77;;;7.60;99.90;;;;;;4930124;28;20051;-63
2023/05/04 07:08:18;;;;;;;5.85;2.10;;;7.50;99.90;;;;;;4925393;29;20051;-67
2023/05/04 07:10:45;;;;;;;2.35;1.52;;;7.50;99.90;;;;;;4920811;28;20094;-63
2023/05/04 07:13:13;;;;;;;2.22;1.10;;;7.60;99.90;;;;;;4943366;28;20055;-71
2023/05/04 07:15:40;;;;;;;3.08;1.77;;;7.70;99.90;;;;;;4931317;28;20055;-70
2023/05/04 07:18:07;;;;;;;1.88;1.73;;;7.80;99.90;;;;;;4932801;28;20522;-64
2023/05/04 07:20:34;;;;;;;2.20;1.70;;;8.00;99.90;;;;;;4943299;28;20474;-67
2023/05/04 07:23:01;;;;;;;2.65;1.33;;;8.10;99.90;;;;;;4946466;28;20055;-66
2023/05/04 07:25:28;;;;;;;1.67;1.10;;;8.10;99.90;;;;;;4939483;28;20055;-66
2023/05/04 07:27:55;;;;;;;3.38;1.65;;;8.10;99.90;;;;;;4945574;28;20401;-65
2023/05/04 07:30:23;;;;;;;3.72;1.33;;;8.10;99.90;;;;;;4921119;29;20047;-69
2023/05/04 07:32:50;;;;;;;1.85;1.33;;;8.10;99.90;;;;;;4924503;29;20055;-67
2023/05/04 07:35:17;;;;;;;1.83;1.33;;;8.20;99.90;;;;;;4938672;28;20054;-68
2023/05/04 07:37:45;;;;;;;3.15;1.35;;;8.20;99.90;;;;;;4949210;28;20134;-63
2023/05/04 07:40:13;;;;;;;4.65;1.73;;;8.30;99.90;;;;;;4948462;28;20050;-63
2023/05/04 07:42:40;;;;;;;5.38;1.63;;;8.40;99.90;;;;;;4940901;28;20055;-65
2023/05/04 07:45:08;;;;;;;2.40;1.50;;;8.70;99.90;;;;;;4950873;28;20118;-67
2023/05/04 07:47:36;;;;;;;1.58;1.48;;;8.90;99.90;;;;;;4948426;28;20058;-71
2023/05/04 07:50:03;;;;;;;1.38;1.10;;;9.10;99.90;;;;;;4945993;28;20098;-67
2023/05/04 07:52:31;;;;;;;3.72;1.15;;;9.20;99.90;;;;;;4947819;28;20059;-70
2023/05/04 07:54:58;;;;;;;1.60;1.30;;;9.20;99.90;;;;;;4944848;28;20051;-63
2023/05/04 07:57:25;;;;;;;4.15;1.52;;;9.20;99.90;;;;;;4949655;28;20061;-65
2023/05/04 07:59:55;;;;;;;2.88;1.08;;;9.20;99.90;;;;;;4931789;28;20496;-67
2023/05/04 08:02:22;;;;;;;1.73;1.38;;;9.30;99.90;;;;;;4926711;28;20091;-68
2023/05/04 08:04:49;;;;;;;2.45;2.17;;;9.30;99.90;;;;;;4943756;28;20478;-69
2023/05/04 08:07:17;;;;;;;2.33;1.58;;;9.30;99.90;;;;;;4951577;28;20389;-62
2023/05/04 08:09:44;;;;;;;1.70;1.10;;;9.30;99.90;;;;;;4934192;28;20146;-66
2023/05/04 08:12:11;;;;;;;4.95;1.77;;;9.10;99.90;;;;;;4944670;28;20072;-65
2023/05/04 08:14:39;;;;;;;3.03;1.33;;;9.10;99.90;;;;;;4939187;28;20402;-63
2023/05/04 08:17:06;;;;;;;3.40;1.75;;;9.10;99.50;;;;;;4943363;28;20070;-64
2023/05/04 08:19:33;;;;;;;2.47;1.13;;;9.10;99.80;;;;;;4939811;28;20062;-65
2023/05/04 08:22:00;;;;;;;1.67;1.58;;;9.30;99.90;;;;;;4948211;28;20105;-64
2023/05/04 08:24:27;;;;;;;1.90;1.13;;;9.50;99.60;;;;;;4941928;28;20094;-66
2023/05/04 08:26:55;;;;;;;4.15;2.05;;;9.60;98.50;;;;;;4953424;28;20134;-65
2023/05/04 08:29:35;;;;;;;4.70;1.45;;;9.70;99.10;;;;;;4943867;28;20051;-70
2023/05/04 08:32:03;;;;;;;2.80;1.30;;;9.70;97.50;;;;;;4951170;28;20063;-66
2023/05/04 08:34:30;;;;;;;1.75;1.35;;;9.70;98.60;;;;;;4967249;28;20046;-65
2023/05/04 08:36:57;;;;;;;4.10;1.55;;;9.50;98.40;;;;;;4939270;28;20059;-71
2023/05/04 08:39:24;;;;;;;2.53;2.05;;;9.50;97.90;;;;;;4926820;29;20143;-67
2023/05/04 08:41:51;;;;;;;3.45;2.28;;;9.50;97.80;;;;;;4937461;28;20048;-64
2023/05/04 08:44:18;;;;;;;2.50;1.23;;;9.50;96.80;;;;;;4948027;28;20581;-75
2023/05/04 08:46:52;;;;;;;2.45;1.40;;;9.60;97.00;;;;;;4943547;28;20047;-63
2023/05/04 08:49:20;;;;;;;1.65;1.35;;;9.60;96.20;;;;;;4945819;28;20506;-64
2023/05/04 08:51:50;;;;;;;4.35;1.38;;;9.60;95.70;;;;;;4945999;28;20087;-65
2023/05/04 08:54:18;;;;;;;;;;;9.70;97.00;;;;;;4950843;28;20051;-67
2023/05/04 08:56:45;;;;;;;1.33;0.98;;;9.70;97.30;;;;;;4943594;28;20388;-64
2023/05/04 08:59:23;;;;;;;4.95;1.73;;;9.80;97.20;;;;;;4947824;28;20046;-64
2023/05/04 09:01:58;;;;;;;1.77;1.67;;;9.80;96.40;;;;;;4945927;28;20086;-70
2023/05/04 09:04:25;;;;;;;2.63;1.65;;;9.70;95.90;;;;;;4947787;28;20146;-66
2023/05/04 09:06:56;;;;;;;1.27;1.17;;;9.60;95.10;;;;;;4945250;28;20057;-67
2023/05/04 09:09:27;;;;;;;2.55;1.42;;;9.60;95.10;;;;;;4947051;28;20079;-64
2023/05/04 09:11:54;;;;;;;2.53;1.70;;;9.70;95.70;;;;;;4929249;29;20055;-64
2023/05/04 09:14:30;;;;;;;1.60;1.50;;;9.70;95.30;;;;;;4925409;28;20047;-64
2023/05/04 09:16:57;;;;;;;2.25;1.25;;;9.70;93.50;;;;;;4952341;28;20109;-67
2023/05/04 09:19:32;;;;;;;2.28;1.08;;;9.70;94.90;;;;;;4943885;28;20059;-65
2023/05/04 09:22:00;;;;;;;4.10;1.70;;;9.80;94.10;;;;;;4947508;28;20294;-68
2023/05/04 09:24:28;;;;;;;4.22;1.52;;;9.80;95.10;;;;;;4941880;28;20073;-66
2023/05/04 09:27:06;;;;;;;3.17;1.85;;;9.80;95.50;;;;;;4946078;28;20142;-62
2023/05/04 09:29:36;;;;;;;6.15;1.67;;;9.80;96.00;;;;;;4939444;28;20051;-71
2023/05/04 09:32:03;;;;;;;2.30;1.17;;;9.80;96.90;;;;;;4942128;28;20872;-71
2023/05/04 09:34:32;;;;;;;4.47;1.88;;;9.60;98.10;;;;;;4946559;28;20106;-62
2023/05/04 09:37:03;;;;;;;2.92;1.30;;;9.40;98.00;;;;;;4943243;28;20063;-61
2023/05/04 09:39:29;;;;;;;1.80;1.40;;;9.30;97.80;;;;;;4948867;28;20058;-61
2023/05/04 09:41:56;;;;;;;3.45;1.75;;;9.10;99.90;;;;;;4944350;28;20536;-63
2023/05/04 09:44:24;;;;;;;3.17;1.63;;;8.70;99.90;;;;;;4942620;28;20110;-68
2023/05/04 09:46:56;;;;;;;3.90;1.50;;;8.60;99.90;;;;;;4942605;28;20058;-67
2023/05/04 09:49:33;;;;;;;50.78;15.05;;;8.60;99.50;;;;;;4942996;28;20053;-68
2023/05/04 09:52:02;;;;;;;5.55;2.63;;;8.80;98.90;;;;;;4943707;28;20059;-61
2023/05/04 09:54:33;;;;;;;3.60;1.60;;;8.90;99.90;;;;;;4936629;28;20114;-61
2023/05/04 09:57:10;;;;;;;4.45;1.55;;;8.80;99.90;;;;;;4933356;28;20105;-64
2023/05/04 09:59:38;;;;;;;1.50;1.27;;;8.60;99.90;;;;;;4944937;28;20137;-64
2023/05/04 10:02:06;;;;;;;2.35;1.75;;;8.60;99.90;;;;;;4942485;28;20069;-64
2023/05/04 10:04:50;;;;;;;4.68;3.70;;;8.70;99.90;;;;;;4938126;28;20576;-62
2023/05/04 10:07:18;;;;;;;3.08;1.90;;;8.90;99.90;;;;;;4941838;28;20039;-77
2023/05/04 10:09:47;;;;;;;5.10;2.05;;;8.90;99.90;;;;;;4932016;28;20476;-62
2023/05/04 10:12:14;;;;;;;2.10;1.50;;;8.80;99.90;;;;;;4943101;28;20093;-67
2023/05/04 10:14:45;;;;;;;1.85;1.73;;;9.00;99.90;;;;;;4937490;28;20106;-73
2023/05/04 10:17:49;;;;;;;3.75;1.75;;;9.00;99.90;;;;;;4944580;28;20533;-64
2023/05/04 10:20:51;;;;;;;1.40;1.30;;;8.90;99.90;;;;;;4942016;28;20055;-69
2023/05/04 10:23:27;;;;;;;3.95;1.67;;;8.70;99.90;;;;;;4942575;28;20079;-68
2023/05/04 10:26:21;;;;;;;3.35;1.38;;;8.50;99.90;;;;;;4942665;28;20043;-67
2023/05/04 10:29:20;;;;;;;2.05;1.42;;;8.30;99.90;;;;;;4940461;28;20555;-66
2023/05/04 10:31:49;;;;;;;4.25;2.05;;;8.20;99.90;;;;;;4942169;28;20718;-67
2023/05/04 10:34:43;;;;;;;3.35;2.30;;;8.10;99.90;;;;;;4943839;28;20043;-65
2023/05/04 10:37:16;;;;;;;3.63;1.98;;;7.90;99.90;;;;;;4939811;28;20465;-68
2023/05/04 10:39:53;;;;;;;3.53;1.15;;;7.80;99.90;;;;;;4945073;28;20497;-64
2023/05/04 10:42:21;;;;;;;2.55;1.90;;;7.50;99.90;;;;;;4944124;28;20498;-66
2023/05/04 10:44:53;;;;;;;3.63;1.80;;;7.30;99.90;;;;;;4941229;28;20051;-65
2023/05/04 10:47:29;;;;;;;2.17;1.65;;;7.30;99.90;;;;;;4941439;28;20457;-67
2023/05/04 10:50:04;;;;;;;3.88;1.60;;;7.50;99.90;;;;;;4942511;28;20625;-65
2023/05/04 10:52:43;;;;;;;7.60;1.60;;;7.70;99.90;;;;;;4923472;28;20138;-75
2023/05/04 10:55:10;;;;;;;3.38;1.48;;;7.70;99.90;;;;;;4938492;28;20134;-68
2023/05/04 10:57:50;;;;;;;1.50;1.20;;;7.70;99.90;;;;;;4941034;28;20079;-68
2023/05/04 11:00:18;;;;;;;4.72;1.63;;;8.00;99.90;;;;;;4940991;28;20560;-74
2023/05/04 11:02:46;;;;;;;4.28;1.83;;;8.10;99.90;;;;;;4941756;28;20057;-69
2023/05/04 11:05:18;;;;;;;4.70;1.27;;;8.20;99.90;;;;;;4939739;28;20059;-66
2023/05/04 11:07:49;;;;;;;6.60;1.90;;;8.30;99.90;;;;;;4944842;28;20163;-71
2023/05/04 11:10:21;;;;;;;2.42;1.42;;;8.20;99.90;;;;;;4947593;28;20139;-66
2023/05/04 11:12:48;;;;;;;2.08;1.40;;;8.00;99.90;;;;;;4950345;28;20047;-63
2023/05/04 11:15:15;;;;;;;2.38;1.00;;;7.90;99.90;;;;;;4948811;28;20043;-63
2023/05/04 11:17:50;;;;;;;2.75;1.35;;;8.00;99.90;;;;;;4942470;28;20070;-70
2023/05/04 11:20:26;;;;;;;3.80;1.45;;;8.10;99.90;;;;;;4955447;28;20047;-64
2023/05/04 11:22:53;;;;;;;2.00;1.23;;;8.00;99.90;;;;;;4949524;28;20154;-67
2023/05/04 11:25:28;;;;;;;2.03;1.58;;;8.00;99.90;;;;;;4951378;28;20083;-75
2023/05/04 11:27:56;;;;;;;1.73;1.27;;;8.20;99.90;;;;;;4948633;28;20571;-67
2023/05/04 11:30:33;;;;;;;2.38;1.85;;;8.20;99.90;;;;;;4945041;28;20466;-70
2023/05/04 11:33:01;;;;;;;1.70;1.02;;;8.30;99.90;;;;;;4950721;28;20098;-65
2023/05/04 11:35:28;;;;;;;1.52;1.05;;;8.30;99.90;;;;;;4947433;28;20074;-67
2023/05/04 11:37:56;;;;;;;2.05;1.02;;;8.40;99.90;;;;;;4947644;28;20646;-68
2023/05/04 11:40:25;;;;;;;1.35;1.10;;;8.40;99.90;;;;;;4942862;28;20146;-73
2023/05/04 11:42:55;;;;;;;2.70;1.05;;;8.50;99.90;;;;;;4940929;28;20098;-67
2023/05/04 11:45:29;;;;;;;2.83;1.30;;;8.50;99.90;;;;;;4949007;28;20525;-64
2023/05/04 11:47:56;;;;;;;1.63;1.50;;;8.20;99.90;;;;;;4950332;28;20134;-65
2023/05/04 11:50:25;;;;;;;2.67;1.30;;;8.30;99.90;;;;;;4944636;28;20138;-65
2023/05/04 11:53:08;;;;;;;5.05;1.52;;;8.30;99.90;;;;;;4950088;28;20067;-71
2023/05/04 11:55:38;;;;;;;5.57;1.60;;;8.40;99.90;;;;;;4943309;28;20139;-67
2023/05/04 11:58:09;;;;;;;2.80;1.45;;;8.40;99.90;;;;;;4943751;28;20107;-67
2023/05/04 12:00:38;;;;;;;4.65;1.25;;;8.40;99.90;;;;;;4945332;28;20051;-64
2023/05/04 12:03:06;;;;;;;2.30;1.38;;;8.30;99.90;;;;;;4950030;28;20047;-68
2023/05/04 12:05:35;;;;;;;2.13;1.45;;;8.50;99.90;;;;;;4957869;28;20564;-71
2023/05/04 12:08:02;;;;;;;2.00;1.25;;;8.70;99.90;;;;;;4947128;28;20047;-67
2023/05/04 12:10:33;;;;;;;1.50;1.40;;;8.80;99.90;;;;;;4942398;28;20047;-68
2023/05/04 12:13:01;;;;;;;1.65;1.23;;;8.60;99.90;;;;;;4946521;28;20051;-72
2023/05/04 12:15:33;;;;;;;1.60;1.27;;;8.40;99.90;;;;;;4942194;28;20052;-64
2023/05/04 12:18:00;;;;;;;3.42;1.08;;;8.30;99.90;;;;;;4948501;28;20071;-65
2023/05/04 12:20:29;;;;;;;1.55;1.33;;;8.10;99.90;;;;;;4941807;28;20043;-64
2023/05/04 12:22:57;;;;;;;2.42;1.35;;;8.10;99.90;;;;;;4951395;28;20039;-68
2023/05/04 12:25:23;;;;;;;9.02;2.63;;;8.20;99.90;;;;;;4947772;28;21798;-67
2023/05/04 12:27:50;;;;;;;2.38;1.38;;;8.40;99.90;;;;;;4950759;28;20087;-64
2023/05/04 12:30:17;;;;;;;3.45;2.15;;;8.50;99.90;;;;;;4944545;28;20406;-71
2023/05/04 12:32:45;;;;;;;3.33;1.30;;;8.50;99.90;;;;;;4941667;28;20047;-66
2023/05/04 12:35:12;;;;;;;2.28;1.13;;;8.40;99.90;;;;;;4947158;28;20043;-66
2023/05/04 12:37:39;;;;;;;2.65;1.23;;;8.40;99.90;;;;;;4948414;28;20059;-76
2023/05/04 12:40:06;;;;;;;1.70;1.40;;;8.30;99.90;;;;;;4953586;28;20065;-64
2023/05/04 12:42:53;;;;;;;1.92;1.50;;;8.40;99.90;;;;;;4947908;28;20046;-70
2023/05/04 12:45:21;;;;;;;2.17;1.00;;;8.30;99.90;;;;;;4946087;28;20051;-76
2023/05/04 12:47:48;;;;;;;2.90;1.25;;;8.40;99.90;;;;;;4951245;28;20142;-67
2023/05/04 12:50:15;;;;;;;3.35;1.33;;;8.30;99.90;;;;;;4949147;28;20046;-67
2023/05/04 12:52:42;;;;;;;1.77;1.40;;;8.20;99.90;;;;;;4943128;28;20106;-66
2023/05/04 12:55:09;;;;;;;5.75;1.45;;;8.20;99.90;;;;;;4948443;28;20082;-71
2023/05/04 12:57:36;;;;;;;1.25;1.13;;;8.30;99.90;;;;;;4940666;28;20054;-73
2023/05/04 13:00:07;;;;;;;1.80;0.90;;;8.30;99.90;;;;;;4940224;28;20560;-65
2023/05/04 13:02:33;;;;;;;;;;;8.30;99.90;;;;;;4943304;28;20053;-71
2023/05/04 13:05:00;;;;;;;2.47;1.58;;;8.40;99.90;;;;;;4943336;28;19923;-67